createdAt,value
2023-03-11T00:00:47.311Z,0.45
2023-03-11T00:03:16.745Z,0.47
2023-03-11T00:05:46.399Z,0.85
2023-03-11T00:08:16.858Z,1.00
2023-03-11T00:10:46.488Z,1.13
2023-03-11T00:13:16.202Z,0.95
2023-03-11T00:15:47.104Z,0.65
2023-03-11T00:18:14.650Z,0.60
2023-03-11T00:20:44.877Z,0.75
2023-03-11T00:23:14.014Z,0.60
2023-03-11T00:25:43.966Z,0.10
2023-03-11T00:28:12.008Z,0.85
2023-03-11T00:30:41.005Z,0.52
2023-03-11T00:33:10.745Z,0.60
2023-03-11T00:35:40.565Z,0.70
2023-03-11T00:38:12.211Z,0.75
2023-03-11T00:40:40.137Z,0.50
2023-03-11T00:43:07.674Z,0.88
2023-03-11T00:45:37.018Z,1.30
2023-03-11T00:48:04.836Z,1.02
2023-03-11T00:50:35.035Z,0.43
2023-03-11T00:53:03.881Z,0.40
2023-03-11T00:55:33.413Z,0.40
2023-03-11T00:58:06.009Z,0.73
2023-03-11T01:00:59.656Z,0.73
2023-03-11T01:03:27.270Z,1.02
2023-03-11T01:05:54.678Z,0.95
2023-03-11T01:08:22.023Z,0.30
2023-03-11T01:10:49.377Z,0.77
2023-03-11T01:13:16.738Z,0.60
2023-03-11T01:15:44.096Z,0.77
2023-03-11T01:18:11.429Z,0.70
2023-03-11T01:20:39.119Z,0.68
2023-03-11T01:23:07.345Z,0.68
2023-03-11T01:25:34.969Z,0.63
2023-03-11T01:28:02.278Z,0.88
2023-03-11T01:30:31.123Z,0.65
2023-03-11T01:32:59.288Z,1.73
2023-03-11T01:35:28.927Z,0.90
2023-03-11T01:37:57.381Z,0.57
2023-03-11T01:40:41.793Z,0.65
2023-03-11T01:43:45.902Z,0.60
2023-03-11T01:46:33.127Z,0.88
2023-03-11T01:49:03.905Z,0.93
2023-03-11T01:51:41.362Z,0.85
2023-03-11T01:54:15.126Z,0.30
2023-03-11T01:56:43.003Z,0.43
2023-03-11T01:59:14.682Z,0.47
2023-03-11T02:01:52.243Z,0.60
2023-03-11T02:04:21.733Z,0.70
2023-03-11T02:06:50.339Z,0.73
2023-03-11T02:09:18.821Z,0.70
2023-03-11T02:11:46.189Z,0.70
2023-03-11T02:14:14.196Z,1.17
2023-03-11T02:16:41.707Z,0.40
2023-03-11T02:19:32.115Z,0.70
2023-03-11T02:22:00.236Z,0.40
2023-03-11T02:24:39.229Z,0.73
2023-03-11T02:27:11.861Z,0.40
2023-03-11T02:29:40.271Z,0.40
2023-03-11T02:32:10.215Z,0.50
2023-03-11T02:34:42.278Z,0.50
2023-03-11T02:37:13.049Z,0.65
2023-03-11T02:39:46.546Z,0.40
2023-03-11T02:42:22.455Z,0.55
2023-03-11T02:44:55.949Z,0.80
2023-03-11T02:47:23.700Z,0.82
2023-03-11T02:49:51.668Z,0.32
2023-03-11T02:52:20.361Z,0.70
2023-03-11T02:54:47.695Z,0.70
2023-03-11T02:57:15.022Z,0.45
2023-03-11T02:59:42.397Z,0.47
2023-03-11T03:02:09.931Z,1.02
2023-03-11T03:04:39.201Z,0.52
2023-03-11T03:07:07.262Z,0.75
2023-03-11T03:09:36.254Z,0.93
2023-03-11T03:12:04.992Z,0.70
2023-03-11T03:14:33.777Z,0.60
2023-03-11T03:17:01.776Z,0.77
2023-03-11T03:19:29.239Z,0.95
2023-03-11T03:21:56.621Z,0.50
2023-03-11T03:24:24.868Z,0.70
2023-03-11T03:26:52.246Z,0.73
2023-03-11T03:29:19.741Z,0.55
2023-03-11T03:31:49.732Z,0.82
2023-03-11T03:34:17.230Z,1.17
2023-03-11T03:36:44.682Z,0.88
2023-03-11T03:39:12.142Z,0.68
2023-03-11T03:41:39.428Z,1.33
2023-03-11T03:44:08.519Z,0.30
2023-03-11T03:46:38.441Z,0.77
2023-03-11T03:49:07.870Z,0.82
2023-03-11T03:51:35.543Z,0.77
2023-03-11T03:54:08.752Z,0.50
2023-03-11T03:56:36.408Z,0.70
2023-03-11T03:59:03.786Z,0.35
2023-03-11T04:01:37.734Z,0.85
2023-03-11T04:04:05.383Z,0.88
2023-03-11T04:06:32.990Z,0.40
2023-03-11T04:09:05.915Z,1.63
2023-03-11T04:11:35.468Z,0.98
2023-03-11T04:14:05.551Z,0.40
2023-03-11T04:16:36.819Z,0.95
2023-03-11T04:19:09.714Z,1.10
2023-03-11T04:21:38.023Z,1.00
2023-03-11T04:24:05.675Z,0.50
2023-03-11T04:26:36.403Z,0.77
2023-03-11T04:29:04.911Z,0.65
2023-03-11T04:31:38.057Z,0.70
2023-03-11T04:34:07.928Z,0.88
2023-03-11T04:36:36.909Z,0.75
2023-03-11T04:39:04.935Z,0.40
2023-03-11T04:41:37.307Z,1.05
2023-03-11T04:44:05.319Z,0.70
2023-03-11T04:46:32.963Z,0.40
2023-03-11T04:49:01.952Z,1.00
2023-03-11T04:51:29.503Z,0.80
2023-03-11T04:53:57.397Z,0.63
2023-03-11T04:56:25.518Z,0.40
2023-03-11T04:58:53.041Z,1.33
2023-03-11T05:01:21.868Z,1.77
2023-03-11T05:03:49.498Z,0.50
2023-03-11T05:06:17.346Z,1.02
2023-03-11T05:08:44.915Z,0.50
2023-03-11T05:11:12.593Z,1.00
2023-03-11T05:13:42.680Z,1.00
2023-03-11T05:16:10.105Z,1.00
2023-03-11T05:18:37.697Z,1.10
2023-03-11T05:21:06.101Z,1.08
2023-03-11T05:23:35.548Z,1.30
2023-03-11T05:26:03.179Z,0.60
2023-03-11T05:28:32.380Z,1.20
2023-03-11T05:31:01.005Z,0.95
2023-03-11T05:33:35.296Z,0.70
2023-03-11T05:36:10.367Z,0.63
2023-03-11T05:38:41.200Z,0.90
2023-03-11T05:41:08.640Z,0.45
2023-03-11T05:43:36.866Z,0.75
2023-03-11T05:46:04.526Z,0.70
2023-03-11T05:48:32.872Z,0.45
2023-03-11T05:51:00.723Z,0.82
2023-03-11T05:53:28.692Z,1.08
2023-03-11T05:56:00.349Z,0.75
2023-03-11T05:58:29.523Z,0.70
2023-03-11T06:00:57.569Z,0.70
2023-03-11T06:03:25.087Z,0.40
2023-03-11T06:05:53.098Z,0.80
2023-03-11T06:08:21.913Z,0.95
2023-03-11T06:10:49.278Z,1.00
2023-03-11T06:13:18.478Z,0.60
2023-03-11T06:15:51.688Z,0.90
2023-03-11T06:18:20.769Z,1.10
2023-03-11T06:20:48.222Z,0.55
2023-03-11T06:23:15.605Z,1.10
2023-03-11T06:25:43.051Z,0.75
2023-03-11T06:28:10.984Z,0.80
2023-03-11T06:30:39.119Z,0.90
2023-03-11T06:33:10.971Z,0.45
2023-03-11T06:35:38.292Z,1.13
2023-03-11T06:38:05.886Z,1.10
2023-03-11T06:40:33.512Z,1.13
2023-03-11T06:43:00.878Z,1.23
2023-03-11T06:45:32.649Z,0.95
2023-03-11T06:48:00.154Z,0.82
2023-03-11T06:50:28.993Z,1.05
2023-03-11T06:52:59.557Z,0.80
2023-03-11T06:55:27.009Z,1.10
2023-03-11T06:57:54.654Z,1.23
2023-03-11T07:00:22.063Z,1.10
2023-03-11T07:02:55.128Z,1.00
2023-03-11T07:05:23.376Z,1.10
2023-03-11T07:07:55.693Z,0.80
2023-03-11T07:10:24.428Z,1.33
2023-03-11T07:12:52.256Z,1.05
2023-03-11T07:15:20.192Z,1.40
2023-03-11T07:17:47.513Z,1.30
2023-03-11T07:20:15.526Z,1.23
2023-03-11T07:22:42.913Z,2.42
2023-03-11T07:25:10.279Z,1.20
2023-03-11T07:27:37.624Z,1.20
2023-03-11T07:30:05.289Z,1.45
2023-03-11T07:32:32.659Z,1.50
2023-03-11T07:35:00.041Z,1.38
2023-03-11T07:37:27.386Z,1.35
2023-03-11T07:39:54.823Z,2.30
2023-03-11T07:42:22.178Z,2.00
2023-03-11T07:44:52.660Z,1.05
2023-03-11T07:47:19.990Z,1.42
2023-03-11T07:49:47.428Z,1.00
2023-03-11T07:52:14.834Z,1.90
2023-03-11T07:54:42.218Z,1.52
2023-03-11T07:57:16.904Z,2.78
2023-03-11T07:59:44.244Z,1.50
2023-03-11T08:02:11.911Z,0.88
2023-03-11T08:04:39.488Z,2.05
2023-03-11T08:07:06.879Z,1.60
2023-03-11T08:09:36.119Z,1.20
2023-03-11T08:12:03.569Z,1.40
2023-03-11T08:14:30.875Z,1.95
2023-03-11T08:16:58.212Z,1.13
2023-03-11T08:19:25.568Z,1.67
2023-03-11T08:21:52.944Z,1.13
2023-03-11T08:24:20.265Z,1.23
2023-03-11T08:26:47.623Z,1.30
2023-03-11T08:29:15.105Z,1.08
2023-03-11T08:31:42.486Z,1.05
2023-03-11T08:34:11.216Z,1.30
2023-03-11T08:36:38.912Z,1.20
2023-03-11T08:39:06.967Z,0.88
2023-03-11T08:41:34.394Z,0.93
2023-03-11T08:44:01.751Z,1.20
2023-03-11T08:46:32.658Z,0.88
2023-03-11T08:49:01.457Z,0.77
2023-03-11T08:51:31.290Z,1.45
2023-03-11T08:53:59.179Z,1.02
2023-03-11T08:56:26.757Z,1.10
2023-03-11T08:58:54.630Z,0.75
2023-03-11T09:01:23.529Z,0.80
2023-03-11T09:03:51.401Z,0.60
2023-03-11T09:06:19.427Z,0.70
2023-03-11T09:08:48.478Z,0.60
2023-03-11T09:11:17.314Z,0.85
2023-03-11T09:13:44.808Z,1.10
2023-03-11T09:16:19.848Z,1.00
2023-03-11T09:18:47.598Z,0.70
2023-03-11T09:21:15.383Z,1.05
2023-03-11T09:23:44.375Z,1.65
2023-03-11T09:26:12.894Z,0.70
2023-03-11T09:28:41.797Z,0.60
2023-03-11T09:31:09.821Z,0.98
2023-03-11T09:33:42.113Z,0.50
2023-03-11T09:36:14.908Z,1.02
2023-03-11T09:38:43.063Z,0.70
2023-03-11T09:41:13.356Z,0.98
2023-03-11T09:43:40.645Z,1.08
2023-03-11T09:46:29.547Z,1.05
2023-03-11T09:49:14.009Z,1.00
2023-03-11T09:52:03.843Z,1.15
2023-03-11T09:54:47.956Z,0.90
2023-03-11T09:57:25.396Z,1.13
2023-03-11T09:59:53.199Z,0.98
2023-03-11T10:02:27.808Z,0.85
2023-03-11T10:07:34.303Z,1.00
2023-03-11T10:10:01.785Z,1.00
2023-03-11T10:13:03.861Z,0.90
2023-03-11T10:15:31.166Z,0.70
2023-03-11T10:18:25.879Z,0.40
2023-03-11T10:20:53.490Z,1.40
2023-03-11T10:23:33.104Z,0.60
2023-03-11T10:26:23.044Z,0.80
2023-03-11T10:29:00.199Z,0.40
2023-03-11T10:31:34.800Z,0.98
2023-03-11T10:34:15.529Z,0.90
2023-03-11T10:37:01.863Z,0.93
2023-03-11T10:39:30.881Z,1.00
2023-03-11T10:42:01.588Z,0.70
2023-03-11T10:44:40.182Z,1.50
2023-03-11T10:47:17.910Z,0.90
2023-03-11T10:49:45.472Z,0.75
2023-03-11T10:52:13.571Z,0.93
2023-03-11T10:54:47.942Z,0.60
2023-03-11T10:57:37.002Z,1.48
2023-03-11T11:00:12.623Z,0.57
2023-03-11T11:02:50.246Z,1.00
2023-03-11T11:05:17.542Z,1.00
2023-03-11T11:07:46.424Z,0.60
2023-03-11T11:10:26.136Z,0.60
2023-03-11T11:12:57.699Z,0.70
2023-03-11T11:15:34.171Z,1.00
2023-03-11T11:18:06.768Z,0.60
2023-03-11T11:20:37.574Z,0.75
2023-03-11T11:23:05.026Z,0.70
2023-03-11T11:25:38.420Z,1.15
2023-03-11T11:28:20.745Z,0.73
2023-03-11T11:30:58.816Z,0.20
2023-03-11T11:33:32.047Z,0.90
2023-03-11T11:36:05.230Z,0.85
2023-03-11T11:38:33.320Z,0.82
2023-03-11T11:41:04.943Z,0.88
2023-03-11T11:43:53.201Z,0.40
2023-03-11T11:46:49.421Z,0.77
2023-03-11T11:49:18.672Z,1.00
2023-03-11T11:52:03.158Z,0.50
2023-03-11T11:54:57.121Z,0.80
2023-03-11T11:57:24.870Z,1.10
2023-03-11T11:59:52.301Z,0.73
2023-03-11T12:02:33.321Z,0.80
2023-03-11T12:05:32.702Z,1.00
2023-03-11T12:08:18.775Z,0.95
2023-03-11T12:10:58.747Z,0.80
2023-03-11T12:13:41.343Z,1.02
2023-03-11T12:16:27.701Z,0.70
2023-03-11T12:19:15.316Z,0.90
2023-03-11T12:22:14.746Z,0.38
2023-03-11T12:24:57.076Z,1.02
2023-03-11T12:27:33.597Z,0.80
2023-03-11T12:30:12.556Z,0.40
2023-03-11T12:33:03.665Z,0.75
2023-03-11T12:35:36.043Z,0.80
2023-03-11T12:38:17.938Z,0.47
2023-03-11T12:40:45.246Z,0.80
2023-03-11T12:43:25.532Z,0.70
2023-03-11T12:45:55.578Z,0.93
2023-03-11T12:48:33.627Z,1.00
2023-03-11T12:51:02.041Z,0.88
2023-03-11T12:53:49.398Z,1.08
2023-03-11T12:56:40.326Z,0.60
2023-03-11T12:59:35.189Z,0.90
2023-03-11T13:02:39.490Z,0.80
2023-03-11T13:05:32.147Z,0.70
2023-03-11T13:08:19.327Z,0.52
2023-03-11T13:10:48.967Z,0.77
2023-03-11T13:13:25.755Z,0.80
2023-03-11T13:15:53.417Z,0.70
2023-03-11T13:18:30.400Z,0.75
2023-03-11T13:21:02.520Z,0.80
2023-03-11T13:23:40.625Z,0.70
2023-03-11T13:26:18.435Z,0.82
2023-03-11T13:29:07.799Z,1.50
2023-03-11T13:32:00.626Z,1.15
2023-03-11T13:34:42.245Z,0.60
2023-03-11T13:37:27.923Z,1.02
2023-03-11T13:40:30.530Z,0.98
2023-03-11T13:43:12.184Z,0.68
2023-03-11T13:45:39.713Z,1.30
2023-03-11T13:48:30.908Z,1.58
2023-03-11T13:51:05.048Z,1.20
2023-03-11T13:53:40.821Z,0.90
2023-03-11T13:56:26.616Z,0.93
2023-03-11T13:58:54.405Z,0.80
2023-03-11T14:01:21.847Z,0.95
2023-03-11T14:03:49.220Z,1.08
2023-03-11T14:06:19.878Z,1.95
2023-03-11T14:08:58.430Z,0.95
2023-03-11T14:11:29.130Z,0.98
2023-03-11T14:13:56.562Z,1.10
2023-03-11T14:16:35.973Z,1.05
2023-03-11T14:19:14.301Z,0.70
2023-03-11T14:21:46.748Z,0.80
2023-03-11T14:24:29.835Z,1.05
2023-03-11T14:27:01.104Z,1.20
2023-03-11T14:29:35.671Z,1.08
2023-03-11T14:35:19.430Z,1.30
2023-03-11T14:37:46.872Z,0.90
2023-03-11T14:40:34.097Z,0.95
2023-03-11T14:43:08.020Z,0.40
2023-03-11T14:45:39.165Z,0.63
2023-03-11T14:48:21.714Z,0.65
2023-03-11T14:50:50.338Z,0.90
2023-03-11T14:53:43.322Z,0.82
2023-03-11T14:56:21.228Z,1.08
2023-03-11T14:59:08.126Z,0.70
2023-03-11T15:01:42.991Z,0.55
2023-03-11T15:04:34.850Z,0.95
2023-03-11T15:07:04.413Z,0.90
2023-03-11T15:09:32.577Z,0.80
2023-03-11T15:12:02.620Z,0.68
2023-03-11T15:14:50.439Z,0.95
2023-03-11T15:17:36.185Z,0.60
2023-03-11T15:20:07.615Z,0.70
2023-03-11T15:22:38.678Z,0.82
2023-03-11T15:25:18.431Z,0.57
2023-03-11T15:27:46.164Z,1.00
2023-03-11T15:30:39.553Z,1.10
2023-03-11T15:33:22.235Z,0.85
2023-03-11T15:35:50.248Z,0.98
2023-03-11T15:38:28.436Z,0.93
2023-03-11T15:40:58.936Z,0.80
2023-03-11T15:43:32.663Z,1.00
2023-03-11T15:46:02.606Z,0.80
2023-03-11T15:48:31.181Z,0.80
2023-03-11T15:51:00.043Z,0.88
2023-03-11T15:53:29.611Z,0.80
2023-03-11T15:56:11.157Z,0.52
2023-03-11T15:58:38.743Z,0.30
2023-03-11T16:01:06.127Z,0.70
2023-03-11T16:03:33.927Z,0.80
2023-03-11T16:06:01.330Z,0.52
2023-03-11T16:08:28.773Z,0.70
2023-03-11T16:10:56.221Z,1.27
2023-03-11T16:13:23.631Z,0.80
2023-03-11T16:15:51.026Z,0.50
2023-03-11T16:18:18.574Z,0.90
2023-03-11T16:20:53.013Z,0.70
2023-03-11T16:23:24.629Z,0.80
2023-03-11T16:25:57.079Z,1.90
2023-03-11T16:28:32.825Z,1.02
2023-03-11T16:31:00.328Z,1.08
2023-03-11T16:33:27.716Z,0.98
2023-03-11T16:35:55.077Z,0.98
2023-03-11T16:38:23.292Z,1.17
2023-03-11T16:40:59.498Z,1.17
2023-03-11T16:43:28.566Z,0.70
2023-03-11T16:45:56.270Z,0.90
2023-03-11T16:48:24.172Z,0.80
2023-03-11T16:50:51.642Z,0.70
2023-03-11T16:53:19.236Z,0.82
2023-03-11T16:55:48.367Z,1.23
2023-03-11T16:58:15.773Z,0.70
2023-03-11T17:00:43.368Z,0.90
2023-03-11T17:03:17.189Z,1.20
2023-03-11T17:05:44.631Z,1.10
2023-03-11T17:08:12.891Z,0.60
2023-03-11T17:10:43.521Z,0.80
2023-03-11T17:13:12.591Z,1.05
2023-03-11T17:15:42.344Z,0.82
2023-03-11T17:18:10.399Z,1.00
2023-03-11T17:20:43.665Z,1.17
2023-03-11T17:23:11.092Z,1.00
2023-03-11T17:25:41.761Z,1.13
2023-03-11T17:28:09.565Z,0.73
2023-03-11T17:30:41.220Z,0.80
2023-03-11T17:33:08.575Z,1.45
2023-03-11T17:35:36.002Z,1.20
2023-03-11T17:38:03.408Z,1.15
2023-03-11T17:40:31.717Z,0.88
2023-03-11T17:42:59.332Z,1.55
2023-03-11T17:45:26.735Z,1.67
2023-03-11T17:47:54.097Z,1.60
2023-03-11T17:50:21.785Z,1.60
2023-03-11T17:52:49.124Z,2.08
2023-03-11T17:55:16.558Z,2.40
2023-03-11T17:57:45.820Z,1.70
2023-03-11T18:00:14.887Z,2.08
2023-03-11T18:02:42.648Z,1.25
2023-03-11T18:05:10.128Z,1.70
2023-03-11T18:07:41.483Z,1.23
2023-03-11T18:10:10.593Z,1.67
2023-03-11T18:12:38.703Z,1.45
2023-03-11T18:15:08.193Z,1.20
2023-03-11T18:17:36.044Z,1.48
2023-03-11T18:20:04.699Z,1.48
2023-03-11T18:22:35.196Z,1.30
2023-03-11T18:25:02.901Z,1.65
2023-03-11T18:27:30.243Z,1.50
2023-03-11T18:29:58.619Z,1.58
2023-03-11T18:32:26.046Z,1.83
2023-03-11T18:34:53.552Z,1.60
2023-03-11T18:37:21.069Z,1.70
2023-03-11T18:39:48.495Z,1.90
2023-03-11T18:42:15.986Z,2.10
2023-03-11T18:44:43.468Z,1.60
2023-03-11T18:47:10.821Z,1.98
2023-03-11T18:49:38.223Z,1.60
2023-03-11T18:52:05.702Z,2.13
2023-03-11T18:54:33.244Z,1.60
2023-03-11T18:57:00.555Z,1.73
2023-03-11T18:59:28.080Z,1.55
2023-03-11T19:01:55.449Z,2.25
2023-03-11T19:04:23.017Z,1.77
2023-03-11T19:06:50.370Z,2.00
2023-03-11T19:09:18.459Z,2.10
2023-03-11T19:11:46.071Z,1.98
2023-03-11T19:14:13.603Z,1.40
2023-03-11T19:16:41.029Z,1.25
2023-03-11T19:19:10.823Z,1.85
2023-03-11T19:21:39.207Z,1.73
2023-03-11T19:24:06.948Z,1.40
2023-03-11T19:26:45.755Z,1.88
2023-03-11T19:29:14.314Z,1.70
2023-03-11T19:31:43.594Z,1.92
2023-03-11T19:34:11.388Z,1.50
2023-03-11T19:36:39.515Z,1.80
2023-03-11T19:39:07.224Z,2.65
2023-03-11T19:41:34.991Z,1.45
2023-03-11T19:44:04.141Z,1.70
2023-03-11T19:46:34.578Z,1.60
2023-03-11T19:49:03.455Z,1.60
2023-03-11T19:51:46.556Z,1.70
2023-03-11T19:54:16.303Z,2.25
2023-03-11T19:56:43.965Z,1.58
2023-03-11T19:59:11.518Z,2.35
2023-03-11T20:01:38.899Z,1.70
2023-03-11T20:04:06.414Z,2.33
2023-03-11T20:06:34.333Z,2.30
2023-03-11T20:09:01.766Z,1.85
2023-03-11T20:11:29.133Z,2.50
2023-03-11T20:13:56.553Z,1.80
2023-03-11T20:16:23.928Z,2.38
2023-03-11T20:18:51.837Z,1.90
2023-03-11T20:21:19.333Z,2.40
2023-03-11T20:23:48.836Z,2.25
2023-03-11T20:26:18.369Z,2.33
2023-03-11T20:28:46.835Z,2.10
2023-03-11T20:31:20.320Z,1.95
2023-03-11T20:33:49.512Z,1.92
2023-03-11T20:36:21.145Z,2.30
2023-03-11T20:38:50.002Z,2.65
2023-03-11T20:41:18.299Z,2.47
2023-03-11T20:43:45.853Z,2.40
2023-03-11T20:46:13.383Z,2.20
2023-03-11T20:48:41.194Z,3.08
2023-03-11T20:51:12.629Z,2.38
2023-03-11T20:53:40.119Z,2.58
2023-03-11T20:56:10.647Z,2.97
2023-03-11T20:58:38.582Z,2.10
2023-03-11T21:01:18.196Z,2.25
2023-03-11T21:03:46.268Z,2.83
2023-03-11T21:06:35.751Z,2.92
2023-03-11T21:09:07.182Z,2.63
2023-03-11T21:11:34.966Z,3.35
2023-03-11T21:14:02.511Z,3.00
2023-03-11T21:16:29.992Z,2.42
2023-03-11T21:18:57.483Z,3.10
2023-03-11T21:21:25.112Z,2.97
2023-03-11T21:23:52.810Z,2.25
2023-03-11T21:26:20.365Z,2.85
2023-03-11T21:28:47.945Z,2.65
2023-03-11T21:31:18.246Z,2.53
2023-03-11T21:33:46.877Z,2.70
2023-03-11T21:36:17.756Z,2.65
2023-03-11T21:38:46.384Z,3.08
2023-03-11T21:41:32.644Z,2.75
2023-03-11T21:44:00.202Z,2.65
2023-03-11T21:46:30.615Z,3.35
2023-03-11T21:48:59.035Z,3.38
2023-03-11T21:51:27.192Z,3.92
2023-03-11T21:53:54.817Z,3.42
2023-03-11T21:56:22.521Z,3.20
2023-03-11T21:58:49.976Z,3.92
2023-03-11T22:01:17.415Z,3.53
2023-03-11T22:03:44.940Z,3.05
2023-03-11T22:06:12.786Z,3.30
2023-03-11T22:08:40.984Z,3.42
2023-03-11T22:11:11.021Z,2.83
2023-03-11T22:13:38.623Z,3.55
2023-03-11T22:16:07.418Z,2.83
2023-03-11T22:18:35.694Z,3.70
2023-03-11T22:21:03.279Z,4.10
2023-03-11T22:23:31.404Z,3.92
2023-03-11T22:25:58.824Z,3.85
2023-03-11T22:28:26.390Z,3.72
2023-03-11T22:30:53.770Z,3.65
2023-03-11T22:33:21.182Z,3.45
2023-03-11T22:35:54.402Z,3.70
2023-03-11T22:38:22.226Z,3.92
2023-03-11T22:40:50.002Z,3.70
2023-03-11T22:43:17.309Z,4.00
2023-03-11T22:45:45.568Z,3.92
2023-03-11T22:48:12.970Z,4.10
2023-03-11T22:50:42.309Z,4.22
2023-03-11T22:53:09.837Z,4.80
2023-03-11T22:55:44.661Z,4.75
2023-03-11T23:00:39.629Z,3.92
2023-03-11T23:03:07.062Z,4.70
2023-03-11T23:05:41.518Z,4.03
2023-03-11T23:08:12.041Z,4.57
2023-03-11T23:10:47.450Z,4.32
2023-03-11T23:13:15.301Z,5.40
2023-03-11T23:15:47.248Z,5.10
2023-03-11T23:18:16.174Z,4.65
2023-03-11T23:20:44.390Z,4.82
2023-03-11T23:23:12.836Z,4.53
2023-03-11T23:25:40.899Z,4.72
2023-03-11T23:28:08.846Z,4.18
2023-03-11T23:30:36.444Z,4.28
2023-03-11T23:33:03.937Z,4.28
2023-03-11T23:35:32.511Z,4.13
2023-03-11T23:38:00.698Z,5.55
2023-03-11T23:40:28.322Z,5.00
2023-03-11T23:42:55.619Z,5.03
2023-03-11T23:45:22.956Z,5.82
2023-03-11T23:47:50.334Z,4.10
2023-03-11T23:50:17.892Z,4.95
2023-03-11T23:52:45.222Z,4.03
2023-03-11T23:55:12.585Z,4.35
2023-03-11T23:57:39.893Z,3.97
